Audubon Park, New Jersey
Current Conditions -  °F | °C
As of 2:54 PM on Monday 24 Nov 2014 (Local Time) from KPHL Reporting Station
Scattered Clouds Scattered Clouds  
Wind Chill: 22°   Ceiling: Unl
Heat Index: 22°   Visibility: 10mi
Dew Point: 13°   Wind: 21mph
Humidity: 57%   Direction: 210°SSW
Pressure: 29.61"   Gusts: 32mph
Location:  39.891°N, 75.0738°W
Report Text: KPHL 241954Z 21018G28KT 10SM SCT034 22/13 A2961 RMK AO2 PK WND 21028/1949 SLP027 T02170128
Loading
Personal Weather Stations






























Interactive Weather Map New forecast layout! Learn more

10-Day Weather Forecast

Advertisements
Track Severe Weather on mobile